Terminal Aerodrome Forecast
Issued by NWS Dallas/Fort Worth, TX

Home | Current Version | Previous Version | Text Only | Print | Product List | Glossary On
Versions: 1 2 3 4 5 6 7 8 9 10 11 12 13 14 15 16 17 18 19 20 21 22 23 24 25 26 27 28 29 30 31 32 33 34 35 36 37
000
FTUS44 KFWD 210527
TAFACT
TAF
KACT 210527Z 2106/2206 35015KT 6SM SHRA BR OVC008
     FM210800 35016KT 5SM SHRA BR VCTS OVC007CB
     FM211400 35015KT 6SM SHRA OVC007
     FM211800 35015KT 5SM -SHRA BR VCTS OVC007CB
     FM212300 35011KT 4SM BR VCSH OVC005=

USA.gov is the U.S. government's official web portal to all federal, state and local government web resources and services.